sensor_id;sensor_type;location;lat;lon;timestamp;temperature;humidity
52919;DHT22;38793;52.690;6.812;2023-04-06T00:00:49;3.20;99.90
52919;DHT22;38793;52.690;6.812;2023-04-06T00:03:15;3.20;99.90
52919;DHT22;38793;52.690;6.812;2023-04-06T00:05:41;3.20;99.90
52919;DHT22;38793;52.690;6.812;2023-04-06T00:08:06;3.20;99.90
52919;DHT22;38793;52.690;6.812;2023-04-06T00:10:32;3.10;99.90
52919;DHT22;38793;52.690;6.812;2023-04-06T00:12:59;3.10;99.90
52919;DHT22;38793;52.690;6.812;2023-04-06T00:15:25;3.10;99.90
52919;DHT22;38793;52.690;6.812;2023-04-06T00:17:51;3.10;99.90
52919;DHT22;38793;52.690;6.812;2023-04-06T00:20:17;3.00;99.90
52919;DHT22;38793;52.690;6.812;2023-04-06T00:22:43;3.00;99.90
52919;DHT22;38793;52.690;6.812;2023-04-06T00:25:09;2.90;99.90
52919;DHT22;38793;52.690;6.812;2023-04-06T00:27:36;2.80;99.90
52919;DHT22;38793;52.690;6.812;2023-04-06T00:30:06;2.80;99.90
52919;DHT22;38793;52.690;6.812;2023-04-06T00:32:32;2.70;99.90
52919;DHT22;38793;52.690;6.812;2023-04-06T00:34:58;2.80;99.90
52919;DHT22;38793;52.690;6.812;2023-04-06T00:37:24;2.70;99.90
52919;DHT22;38793;52.690;6.812;2023-04-06T00:39:49;2.70;99.90
52919;DHT22;38793;52.690;6.812;2023-04-06T00:42:18;2.70;99.90
52919;DHT22;38793;52.690;6.812;2023-04-06T00:44:51;2.60;99.90
52919;DHT22;38793;52.690;6.812;2023-04-06T00:47:17;2.60;99.90
52919;DHT22;38793;52.690;6.812;2023-04-06T00:49:42;2.50;99.90
52919;DHT22;38793;52.690;6.812;2023-04-06T00:52:08;2.50;99.90
52919;DHT22;38793;52.690;6.812;2023-04-06T00:54:34;2.50;99.90
52919;DHT22;38793;52.690;6.812;2023-04-06T00:56:59;2.40;99.90
52919;DHT22;38793;52.690;6.812;2023-04-06T00:59:27;2.50;99.90
52919;DHT22;38793;52.690;6.812;2023-04-06T01:01:53;2.50;99.90
52919;DHT22;38793;52.690;6.812;2023-04-06T01:04:18;2.50;99.90
52919;DHT22;38793;52.690;6.812;2023-04-06T01:06:44;2.50;99.90
52919;DHT22;38793;52.690;6.812;2023-04-06T01:09:10;2.50;99.90
52919;DHT22;38793;52.690;6.812;2023-04-06T01:11:36;2.50;99.90
52919;DHT22;38793;52.690;6.812;2023-04-06T01:14:02;2.40;99.90
52919;DHT22;38793;52.690;6.812;2023-04-06T01:16:28;2.40;99.90
52919;DHT22;38793;52.690;6.812;2023-04-06T01:18:54;2.30;99.90
52919;DHT22;38793;52.690;6.812;2023-04-06T01:21:19;2.20;99.90
52919;DHT22;38793;52.690;6.812;2023-04-06T01:23:45;2.20;99.90
52919;DHT22;38793;52.690;6.812;2023-04-06T01:26:13;2.20;99.90
52919;DHT22;38793;52.690;6.812;2023-04-06T01:28:39;2.10;99.90
52919;DHT22;38793;52.690;6.812;2023-04-06T01:31:07;2.00;99.90
52919;DHT22;38793;52.690;6.812;2023-04-06T01:33:33;2.10;99.90
52919;DHT22;38793;52.690;6.812;2023-04-06T01:35:58;2.10;99.90
52919;DHT22;38793;52.690;6.812;2023-04-06T01:38:25;2.10;99.90
52919;DHT22;38793;52.690;6.812;2023-04-06T01:40:51;2.20;99.90
52919;DHT22;38793;52.690;6.812;2023-04-06T01:43:17;2.30;99.90
52919;DHT22;38793;52.690;6.812;2023-04-06T01:45:43;2.30;99.90
52919;DHT22;38793;52.690;6.812;2023-04-06T01:48:08;2.30;99.90
52919;DHT22;38793;52.690;6.812;2023-04-06T01:50:34;2.30;99.90
52919;DHT22;38793;52.690;6.812;2023-04-06T01:52:59;2.30;99.90
52919;DHT22;38793;52.690;6.812;2023-04-06T01:55:25;2.40;99.90
52919;DHT22;38793;52.690;6.812;2023-04-06T01:57:51;2.40;99.90
52919;DHT22;38793;52.690;6.812;2023-04-06T02:00:17;2.40;99.90
52919;DHT22;38793;52.690;6.812;2023-04-06T02:02:42;2.40;99.90
52919;DHT22;38793;52.690;6.812;2023-04-06T02:05:08;2.40;99.90
52919;DHT22;38793;52.690;6.812;2023-04-06T02:07:34;2.30;99.90
52919;DHT22;38793;52.690;6.812;2023-04-06T02:09:59;2.30;99.90
52919;DHT22;38793;52.690;6.812;2023-04-06T02:12:25;2.20;99.90
52919;DHT22;38793;52.690;6.812;2023-04-06T02:14:51;2.20;99.90
52919;DHT22;38793;52.690;6.812;2023-04-06T02:17:17;2.20;99.90
52919;DHT22;38793;52.690;6.812;2023-04-06T02:19:42;2.20;99.90
52919;DHT22;38793;52.690;6.812;2023-04-06T02:22:09;2.20;99.90
52919;DHT22;38793;52.690;6.812;2023-04-06T02:24:35;2.20;99.90
52919;DHT22;38793;52.690;6.812;2023-04-06T02:27:01;2.20;99.90
52919;DHT22;38793;52.690;6.812;2023-04-06T02:29:26;2.20;99.90
52919;DHT22;38793;52.690;6.812;2023-04-06T02:31:52;2.20;99.90
52919;DHT22;38793;52.690;6.812;2023-04-06T02:34:17;2.20;99.90
52919;DHT22;38793;52.690;6.812;2023-04-06T02:36:45;2.20;99.90
52919;DHT22;38793;52.690;6.812;2023-04-06T02:39:11;2.10;99.90
52919;DHT22;38793;52.690;6.812;2023-04-06T02:41:37;2.00;99.90
52919;DHT22;38793;52.690;6.812;2023-04-06T02:44:03;2.00;99.90
52919;DHT22;38793;52.690;6.812;2023-04-06T02:46:28;2.00;99.90
52919;DHT22;38793;52.690;6.812;2023-04-06T02:48:54;1.90;99.90
52919;DHT22;38793;52.690;6.812;2023-04-06T02:51:20;1.90;99.90
52919;DHT22;38793;52.690;6.812;2023-04-06T02:53:46;1.90;99.90
52919;DHT22;38793;52.690;6.812;2023-04-06T02:56:11;1.90;99.90
52919;DHT22;38793;52.690;6.812;2023-04-06T02:58:37;1.90;99.90
52919;DHT22;38793;52.690;6.812;2023-04-06T03:01:03;1.90;99.90
52919;DHT22;38793;52.690;6.812;2023-04-06T03:03:29;1.90;99.90
52919;DHT22;38793;52.690;6.812;2023-04-06T03:05:55;1.90;99.90
52919;DHT22;38793;52.690;6.812;2023-04-06T03:08:24;1.90;99.90
52919;DHT22;38793;52.690;6.812;2023-04-06T03:10:50;1.80;99.90
52919;DHT22;38793;52.690;6.812;2023-04-06T03:13:16;1.60;99.90
52919;DHT22;38793;52.690;6.812;2023-04-06T03:15:41;1.50;99.90
52919;DHT22;38793;52.690;6.812;2023-04-06T03:18:07;1.50;99.90
52919;DHT22;38793;52.690;6.812;2023-04-06T03:20:32;1.50;99.90
52919;DHT22;38793;52.690;6.812;2023-04-06T03:22:58;1.60;99.90
52919;DHT22;38793;52.690;6.812;2023-04-06T03:25:24;1.60;99.90
52919;DHT22;38793;52.690;6.812;2023-04-06T03:27:50;1.70;99.90
52919;DHT22;38793;52.690;6.812;2023-04-06T03:30:15;1.70;99.90
52919;DHT22;38793;52.690;6.812;2023-04-06T03:32:44;1.70;99.90
52919;DHT22;38793;52.690;6.812;2023-04-06T03:35:10;1.70;99.90
52919;DHT22;38793;52.690;6.812;2023-04-06T03:37:36;1.70;99.90
52919;DHT22;38793;52.690;6.812;2023-04-06T03:40:02;1.70;99.90
52919;DHT22;38793;52.690;6.812;2023-04-06T03:42:28;1.70;99.90
52919;DHT22;38793;52.690;6.812;2023-04-06T03:44:53;1.60;99.90
52919;DHT22;38793;52.690;6.812;2023-04-06T03:47:19;1.60;99.90
52919;DHT22;38793;52.690;6.812;2023-04-06T03:49:44;1.60;99.90
52919;DHT22;38793;52.690;6.812;2023-04-06T03:52:10;1.60;99.90
52919;DHT22;38793;52.690;6.812;2023-04-06T03:54:36;1.60;99.90
52919;DHT22;38793;52.690;6.812;2023-04-06T03:57:02;1.50;99.90
52919;DHT22;38793;52.690;6.812;2023-04-06T03:59:27;1.30;99.90
52919;DHT22;38793;52.690;6.812;2023-04-06T04:01:53;1.10;99.90
52919;DHT22;38793;52.690;6.812;2023-04-06T04:04:19;1.10;99.90
52919;DHT22;38793;52.690;6.812;2023-04-06T04:06:44;1.10;99.90
52919;DHT22;38793;52.690;6.812;2023-04-06T04:09:10;1.10;99.90
52919;DHT22;38793;52.690;6.812;2023-04-06T04:11:36;1.10;99.90
52919;DHT22;38793;52.690;6.812;2023-04-06T04:14:01;1.10;99.90
52919;DHT22;38793;52.690;6.812;2023-04-06T04:16:27;1.10;99.90
52919;DHT22;38793;52.690;6.812;2023-04-06T04:18:52;1.10;99.90
52919;DHT22;38793;52.690;6.812;2023-04-06T04:21:18;1.10;99.90
52919;DHT22;38793;52.690;6.812;2023-04-06T04:23:44;1.10;99.90
52919;DHT22;38793;52.690;6.812;2023-04-06T04:26:09;1.10;99.90
52919;DHT22;38793;52.690;6.812;2023-04-06T04:28:35;1.10;99.90
52919;DHT22;38793;52.690;6.812;2023-04-06T04:31:01;1.00;99.90
52919;DHT22;38793;52.690;6.812;2023-04-06T04:33:26;0.90;99.90
52919;DHT22;38793;52.690;6.812;2023-04-06T04:35:52;0.80;99.90
52919;DHT22;38793;52.690;6.812;2023-04-06T04:38:17;0.80;99.90
52919;DHT22;38793;52.690;6.812;2023-04-06T04:40:43;0.90;99.90
52919;DHT22;38793;52.690;6.812;2023-04-06T04:43:09;0.90;99.90
52919;DHT22;38793;52.690;6.812;2023-04-06T04:45:34;0.90;99.90
52919;DHT22;38793;52.690;6.812;2023-04-06T04:48:00;0.90;99.90
52919;DHT22;38793;52.690;6.812;2023-04-06T04:50:25;0.90;99.90
52919;DHT22;38793;52.690;6.812;2023-04-06T04:52:51;0.90;99.90
52919;DHT22;38793;52.690;6.812;2023-04-06T04:55:17;0.90;99.90
52919;DHT22;38793;52.690;6.812;2023-04-06T04:57:43;0.90;99.90
52919;DHT22;38793;52.690;6.812;2023-04-06T05:00:09;0.90;99.90
52919;DHT22;38793;52.690;6.812;2023-04-06T05:02:35;0.90;99.90
52919;DHT22;38793;52.690;6.812;2023-04-06T05:05:00;0.90;99.90
52919;DHT22;38793;52.690;6.812;2023-04-06T05:07:26;0.90;99.90
52919;DHT22;38793;52.690;6.812;2023-04-06T05:09:52;0.80;99.90
52919;DHT22;38793;52.690;6.812;2023-04-06T05:12:18;0.90;99.90
52919;DHT22;38793;52.690;6.812;2023-04-06T05:14:45;0.80;99.90
52919;DHT22;38793;52.690;6.812;2023-04-06T05:17:10;0.80;99.90
52919;DHT22;38793;52.690;6.812;2023-04-06T05:19:36;0.80;99.90
52919;DHT22;38793;52.690;6.812;2023-04-06T05:22:02;0.80;99.90
52919;DHT22;38793;52.690;6.812;2023-04-06T05:24:27;0.90;99.90
52919;DHT22;38793;52.690;6.812;2023-04-06T05:26:53;0.90;99.90
52919;DHT22;38793;52.690;6.812;2023-04-06T05:29:19;0.90;99.90
52919;DHT22;38793;52.690;6.812;2023-04-06T05:31:45;0.90;99.90
52919;DHT22;38793;52.690;6.812;2023-04-06T05:34:11;0.90;99.90
52919;DHT22;38793;52.690;6.812;2023-04-06T05:36:38;1.00;99.90
52919;DHT22;38793;52.690;6.812;2023-04-06T05:39:03;1.00;99.90
52919;DHT22;38793;52.690;6.812;2023-04-06T05:41:29;1.00;99.90
52919;DHT22;38793;52.690;6.812;2023-04-06T05:43:54;1.10;99.90
52919;DHT22;38793;52.690;6.812;2023-04-06T05:46:20;1.10;99.90
52919;DHT22;38793;52.690;6.812;2023-04-06T05:48:46;1.20;99.90
52919;DHT22;38793;52.690;6.812;2023-04-06T05:51:12;1.20;99.90
52919;DHT22;38793;52.690;6.812;2023-04-06T05:53:37;1.30;99.90
52919;DHT22;38793;52.690;6.812;2023-04-06T05:56:03;1.40;99.90
52919;DHT22;38793;52.690;6.812;2023-04-06T05:58:29;1.40;99.90
52919;DHT22;38793;52.690;6.812;2023-04-06T06:00:59;1.50;99.90
52919;DHT22;38793;52.690;6.812;2023-04-06T06:03:25;1.60;99.90
52919;DHT22;38793;52.690;6.812;2023-04-06T06:05:50;1.70;99.90
52919;DHT22;38793;52.690;6.812;2023-04-06T06:08:16;1.80;99.90
52919;DHT22;38793;52.690;6.812;2023-04-06T06:10:42;1.90;99.90
52919;DHT22;38793;52.690;6.812;2023-04-06T06:13:08;2.00;99.90
52919;DHT22;38793;52.690;6.812;2023-04-06T06:15:34;2.10;99.90
52919;DHT22;38793;52.690;6.812;2023-04-06T06:17:59;2.20;99.90
52919;DHT22;38793;52.690;6.812;2023-04-06T06:20:25;2.30;99.90
52919;DHT22;38793;52.690;6.812;2023-04-06T06:22:52;2.30;99.90
52919;DHT22;38793;52.690;6.812;2023-04-06T06:25:17;2.40;99.90
52919;DHT22;38793;52.690;6.812;2023-04-06T06:27:43;2.50;99.90
52919;DHT22;38793;52.690;6.812;2023-04-06T06:30:09;2.70;99.90
52919;DHT22;38793;52.690;6.812;2023-04-06T06:32:35;2.90;99.90
52919;DHT22;38793;52.690;6.812;2023-04-06T06:35:00;3.00;99.90
52919;DHT22;38793;52.690;6.812;2023-04-06T06:37:26;3.10;99.90
52919;DHT22;38793;52.690;6.812;2023-04-06T06:39:52;3.20;99.90
52919;DHT22;38793;52.690;6.812;2023-04-06T06:42:17;3.10;99.90
52919;DHT22;38793;52.690;6.812;2023-04-06T06:44:44;3.20;99.90
52919;DHT22;38793;52.690;6.812;2023-04-06T06:47:10;3.20;99.90
52919;DHT22;38793;52.690;6.812;2023-04-06T06:49:35;3.30;99.90
52919;DHT22;38793;52.690;6.812;2023-04-06T06:52:01;3.40;99.90
52919;DHT22;38793;52.690;6.812;2023-04-06T06:54:27;3.40;99.90
52919;DHT22;38793;52.690;6.812;2023-04-06T06:56:52;3.50;99.90
52919;DHT22;38793;52.690;6.812;2023-04-06T06:59:19;3.60;99.90
52919;DHT22;38793;52.690;6.812;2023-04-06T07:01:46;3.60;99.90
52919;DHT22;38793;52.690;6.812;2023-04-06T07:04:12;3.70;99.90
52919;DHT22;38793;52.690;6.812;2023-04-06T07:06:37;3.70;99.90
52919;DHT22;38793;52.690;6.812;2023-04-06T07:09:03;3.80;99.90
52919;DHT22;38793;52.690;6.812;2023-04-06T07:11:29;3.90;99.90
52919;DHT22;38793;52.690;6.812;2023-04-06T07:13:55;4.00;99.90
52919;DHT22;38793;52.690;6.812;2023-04-06T07:16:21;4.00;99.90
52919;DHT22;38793;52.690;6.812;2023-04-06T07:18:46;4.10;99.90
52919;DHT22;38793;52.690;6.812;2023-04-06T07:21:12;4.10;99.90
52919;DHT22;38793;52.690;6.812;2023-04-06T07:23:38;4.20;99.90
52919;DHT22;38793;52.690;6.812;2023-04-06T07:26:04;4.40;99.90
52919;DHT22;38793;52.690;6.812;2023-04-06T07:28:29;4.50;99.90
52919;DHT22;38793;52.690;6.812;2023-04-06T07:30:55;4.60;99.90
52919;DHT22;38793;52.690;6.812;2023-04-06T07:33:20;4.80;99.90
52919;DHT22;38793;52.690;6.812;2023-04-06T07:35:46;4.90;99.90
52919;DHT22;38793;52.690;6.812;2023-04-06T07:38:12;5.10;99.90
52919;DHT22;38793;52.690;6.812;2023-04-06T07:40:37;5.20;99.90
52919;DHT22;38793;52.690;6.812;2023-04-06T07:43:03;5.30;99.90
52919;DHT22;38793;52.690;6.812;2023-04-06T07:45:29;5.40;99.90
52919;DHT22;38793;52.690;6.812;2023-04-06T07:47:55;5.50;99.90
52919;DHT22;38793;52.690;6.812;2023-04-06T07:50:20;5.60;99.90
52919;DHT22;38793;52.690;6.812;2023-04-06T07:52:46;5.70;99.90
52919;DHT22;38793;52.690;6.812;2023-04-06T07:55:12;5.90;99.90
52919;DHT22;38793;52.690;6.812;2023-04-06T07:57:37;6.00;99.90
52919;DHT22;38793;52.690;6.812;2023-04-06T08:00:03;6.10;99.90
52919;DHT22;38793;52.690;6.812;2023-04-06T08:02:31;6.20;99.90
52919;DHT22;38793;52.690;6.812;2023-04-06T08:04:56;6.40;99.90
52919;DHT22;38793;52.690;6.812;2023-04-06T08:07:22;6.50;99.90
52919;DHT22;38793;52.690;6.812;2023-04-06T08:09:48;6.60;99.90
52919;DHT22;38793;52.690;6.812;2023-04-06T08:12:14;6.70;99.90
52919;DHT22;38793;52.690;6.812;2023-04-06T08:14:40;6.80;99.90
52919;DHT22;38793;52.690;6.812;2023-04-06T08:17:06;6.90;99.90
52919;DHT22;38793;52.690;6.812;2023-04-06T08:19:31;7.00;99.90
52919;DHT22;38793;52.690;6.812;2023-04-06T08:21:57;7.10;99.90
52919;DHT22;38793;52.690;6.812;2023-04-06T08:24:22;7.30;99.90
52919;DHT22;38793;52.690;6.812;2023-04-06T08:26:48;7.40;99.90
52919;DHT22;38793;52.690;6.812;2023-04-06T08:29:14;7.60;99.90
52919;DHT22;38793;52.690;6.812;2023-04-06T08:31:39;7.70;99.90
52919;DHT22;38793;52.690;6.812;2023-04-06T08:34:05;7.90;99.90
52919;DHT22;38793;52.690;6.812;2023-04-06T08:36:32;7.90;99.90
52919;DHT22;38793;52.690;6.812;2023-04-06T08:38:59;8.10;99.90
52919;DHT22;38793;52.690;6.812;2023-04-06T08:41:25;8.30;99.90
52919;DHT22;38793;52.690;6.812;2023-04-06T08:44:00;8.40;99.90
52919;DHT22;38793;52.690;6.812;2023-04-06T08:46:26;8.50;99.90
52919;DHT22;38793;52.690;6.812;2023-04-06T08:48:55;8.60;99.90
52919;DHT22;38793;52.690;6.812;2023-04-06T08:51:23;8.70;99.90
52919;DHT22;38793;52.690;6.812;2023-04-06T08:53:50;8.70;98.80
52919;DHT22;38793;52.690;6.812;2023-04-06T08:56:16;8.80;98.80
52919;DHT22;38793;52.690;6.812;2023-04-06T08:58:43;8.90;99.10
52919;DHT22;38793;52.690;6.812;2023-04-06T09:01:12;9.10;99.10
52919;DHT22;38793;52.690;6.812;2023-04-06T09:04:36;9.20;98.90
52919;DHT22;38793;52.690;6.812;2023-04-06T09:07:02;9.40;98.90
52919;DHT22;38793;52.690;6.812;2023-04-06T09:09:28;9.50;98.20
52919;DHT22;38793;52.690;6.812;2023-04-06T09:11:53;9.40;97.40
52919;DHT22;38793;52.690;6.812;2023-04-06T09:14:36;9.50;97.80
52919;DHT22;38793;52.690;6.812;2023-04-06T09:17:03;9.60;98.10
52919;DHT22;38793;52.690;6.812;2023-04-06T09:19:28;9.60;97.00
52919;DHT22;38793;52.690;6.812;2023-04-06T09:22:04;9.70;97.00
52919;DHT22;38793;52.690;6.812;2023-04-06T09:24:41;9.70;97.80
52919;DHT22;38793;52.690;6.812;2023-04-06T09:27:07;9.70;96.80
52919;DHT22;38793;52.690;6.812;2023-04-06T09:29:32;9.70;96.60
52919;DHT22;38793;52.690;6.812;2023-04-06T09:32:03;9.80;97.60
52919;DHT22;38793;52.690;6.812;2023-04-06T09:34:29;9.80;96.50
52919;DHT22;38793;52.690;6.812;2023-04-06T09:36:55;9.90;96.90
52919;DHT22;38793;52.690;6.812;2023-04-06T09:39:21;10.00;96.40
52919;DHT22;38793;52.690;6.812;2023-04-06T09:41:50;10.00;96.50
52919;DHT22;38793;52.690;6.812;2023-04-06T09:44:16;10.00;94.50
52919;DHT22;38793;52.690;6.812;2023-04-06T09:46:45;10.00;95.40
52919;DHT22;38793;52.690;6.812;2023-04-06T09:49:12;10.10;95.00
52919;DHT22;38793;52.690;6.812;2023-04-06T09:51:46;10.10;94.20
52919;DHT22;38793;52.690;6.812;2023-04-06T09:54:17;10.10;94.60
52919;DHT22;38793;52.690;6.812;2023-04-06T09:56:56;10.10;94.70
52919;DHT22;38793;52.690;6.812;2023-04-06T10:00:01;10.20;95.00
52919;DHT22;38793;52.690;6.812;2023-04-06T10:02:41;10.20;94.40
52919;DHT22;38793;52.690;6.812;2023-04-06T10:05:16;10.30;94.10
52919;DHT22;38793;52.690;6.812;2023-04-06T10:07:45;10.30;93.40
52919;DHT22;38793;52.690;6.812;2023-04-06T10:10:12;10.30;92.70
52919;DHT22;38793;52.690;6.812;2023-04-06T10:12:40;10.40;93.50
52919;DHT22;38793;52.690;6.812;2023-04-06T10:15:06;10.50;93.70
52919;DHT22;38793;52.690;6.812;2023-04-06T10:17:32;10.60;93.00
52919;DHT22;38793;52.690;6.812;2023-04-06T10:20:04;10.60;92.10
52919;DHT22;38793;52.690;6.812;2023-04-06T10:22:41;10.60;91.20
52919;DHT22;38793;52.690;6.812;2023-04-06T10:25:08;10.60;90.70
52919;DHT22;38793;52.690;6.812;2023-04-06T10:27:34;10.70;91.00
52919;DHT22;38793;52.690;6.812;2023-04-06T10:30:03;10.80;91.20
52919;DHT22;38793;52.690;6.812;2023-04-06T10:32:38;10.90;92.30
52919;DHT22;38793;52.690;6.812;2023-04-06T10:35:09;11.00;91.50
52919;DHT22;38793;52.690;6.812;2023-04-06T10:37:52;11.20;91.20
52919;DHT22;38793;52.690;6.812;2023-04-06T10:40:25;11.30;90.70
52919;DHT22;38793;52.690;6.812;2023-04-06T10:42:52;11.30;90.00
52919;DHT22;38793;52.690;6.812;2023-04-06T10:45:23;11.50;91.50
52919;DHT22;38793;52.690;6.812;2023-04-06T10:47:52;11.50;90.50
52919;DHT22;38793;52.690;6.812;2023-04-06T10:50:18;11.60;91.00
52919;DHT22;38793;52.690;6.812;2023-04-06T10:52:45;11.70;90.20
52919;DHT22;38793;52.690;6.812;2023-04-06T10:55:13;11.80;89.80
52919;DHT22;38793;52.690;6.812;2023-04-06T10:57:40;11.90;88.30
52919;DHT22;38793;52.690;6.812;2023-04-06T11:00:06;11.90;88.50
52919;DHT22;38793;52.690;6.812;2023-04-06T11:02:34;11.90;87.70
52919;DHT22;38793;52.690;6.812;2023-04-06T11:05:00;11.90;88.60
52919;DHT22;38793;52.690;6.812;2023-04-06T11:07:26;12.00;87.30
52919;DHT22;38793;52.690;6.812;2023-04-06T11:09:53;11.90;86.90
52919;DHT22;38793;52.690;6.812;2023-04-06T11:12:23;11.90;84.60
52919;DHT22;38793;52.690;6.812;2023-04-06T11:14:58;11.80;84.00
52919;DHT22;38793;52.690;6.812;2023-04-06T11:17:30;11.80;85.10
52919;DHT22;38793;52.690;6.812;2023-04-06T11:19:57;11.90;86.50
52919;DHT22;38793;52.690;6.812;2023-04-06T11:22:23;12.00;86.40
52919;DHT22;38793;52.690;6.812;2023-04-06T11:24:49;12.00;84.60
52919;DHT22;38793;52.690;6.812;2023-04-06T11:27:15;12.00;83.90
52919;DHT22;38793;52.690;6.812;2023-04-06T11:29:42;12.10;85.20
52919;DHT22;38793;52.690;6.812;2023-04-06T11:32:08;12.20;82.80
52919;DHT22;38793;52.690;6.812;2023-04-06T11:34:39;12.10;81.90
52919;DHT22;38793;52.690;6.812;2023-04-06T11:37:09;12.10;80.40
52919;DHT22;38793;52.690;6.812;2023-04-06T11:39:54;12.00;80.10
52919;DHT22;38793;52.690;6.812;2023-04-06T11:42:29;12.00;80.70
52919;DHT22;38793;52.690;6.812;2023-04-06T11:44:58;12.00;81.40
52919;DHT22;38793;52.690;6.812;2023-04-06T11:47:28;12.00;79.30
52919;DHT22;38793;52.690;6.812;2023-04-06T11:49:54;12.00;78.10
52919;DHT22;38793;52.690;6.812;2023-04-06T11:52:23;12.00;78.60
52919;DHT22;38793;52.690;6.812;2023-04-06T11:54:50;12.00;79.20
52919;DHT22;38793;52.690;6.812;2023-04-06T11:57:19;12.10;81.10
52919;DHT22;38793;52.690;6.812;2023-04-06T11:59:45;12.10;78.50
52919;DHT22;38793;52.690;6.812;2023-04-06T12:02:10;12.10;77.20
52919;DHT22;38793;52.690;6.812;2023-04-06T12:04:36;12.10;75.40
52919;DHT22;38793;52.690;6.812;2023-04-06T12:07:03;12.00;76.70
52919;DHT22;38793;52.690;6.812;2023-04-06T12:09:30;12.10;77.10
52919;DHT22;38793;52.690;6.812;2023-04-06T12:11:56;12.10;76.20
52919;DHT22;38793;52.690;6.812;2023-04-06T12:14:22;12.20;76.20
52919;DHT22;38793;52.690;6.812;2023-04-06T12:16:48;12.20;75.50
52919;DHT22;38793;52.690;6.812;2023-04-06T12:19:13;12.20;75.10
52919;DHT22;38793;52.690;6.812;2023-04-06T12:21:39;12.20;73.60
52919;DHT22;38793;52.690;6.812;2023-04-06T12:24:06;12.30;75.90
52919;DHT22;38793;52.690;6.812;2023-04-06T12:26:32;12.40;75.40
52919;DHT22;38793;52.690;6.812;2023-04-06T12:29:01;12.40;75.20
52919;DHT22;38793;52.690;6.812;2023-04-06T12:31:32;12.50;75.60
52919;DHT22;38793;52.690;6.812;2023-04-06T12:33:58;12.50;74.40
52919;DHT22;38793;52.690;6.812;2023-04-06T12:36:24;12.70;75.70
52919;DHT22;38793;52.690;6.812;2023-04-06T12:38:50;12.70;74.00
52919;DHT22;38793;52.690;6.812;2023-04-06T12:41:16;12.70;73.00
52919;DHT22;38793;52.690;6.812;2023-04-06T12:43:43;12.70;72.90
52919;DHT22;38793;52.690;6.812;2023-04-06T12:46:09;12.70;71.80
52919;DHT22;38793;52.690;6.812;2023-04-06T12:48:35;12.60;74.80
52919;DHT22;38793;52.690;6.812;2023-04-06T12:51:02;12.60;74.10
52919;DHT22;38793;52.690;6.812;2023-04-06T12:53:28;12.60;73.10
52919;DHT22;38793;52.690;6.812;2023-04-06T12:55:55;12.50;72.90
52919;DHT22;38793;52.690;6.812;2023-04-06T12:58:21;12.50;72.60
52919;DHT22;38793;52.690;6.812;2023-04-06T13:00:48;12.50;73.30
52919;DHT22;38793;52.690;6.812;2023-04-06T13:03:14;12.60;72.70
52919;DHT22;38793;52.690;6.812;2023-04-06T13:05:49;12.60;72.10
52919;DHT22;38793;52.690;6.812;2023-04-06T13:08:16;12.60;73.60
52919;DHT22;38793;52.690;6.812;2023-04-06T13:10:47;12.60;74.70
52919;DHT22;38793;52.690;6.812;2023-04-06T13:13:17;12.60;74.80
52919;DHT22;38793;52.690;6.812;2023-04-06T13:15:44;12.70;77.30
52919;DHT22;38793;52.690;6.812;2023-04-06T13:18:10;12.60;75.70
52919;DHT22;38793;52.690;6.812;2023-04-06T13:20:36;12.60;77.30
52919;DHT22;38793;52.690;6.812;2023-04-06T13:23:02;12.70;76.50
52919;DHT22;38793;52.690;6.812;2023-04-06T13:25:28;12.70;76.60
52919;DHT22;38793;52.690;6.812;2023-04-06T13:27:54;12.60;75.40
52919;DHT22;38793;52.690;6.812;2023-04-06T13:30:20;12.60;75.80
52919;DHT22;38793;52.690;6.812;2023-04-06T13:32:46;12.50;76.60
52919;DHT22;38793;52.690;6.812;2023-04-06T13:35:12;12.40;75.40
52919;DHT22;38793;52.690;6.812;2023-04-06T13:37:38;12.40;75.60
52919;DHT22;38793;52.690;6.812;2023-04-06T13:40:04;12.40;76.30
52919;DHT22;38793;52.690;6.812;2023-04-06T13:42:30;12.40;77.00
52919;DHT22;38793;52.690;6.812;2023-04-06T13:44:56;12.40;77.90
52919;DHT22;38793;52.690;6.812;2023-04-06T13:47:22;12.40;78.30
52919;DHT22;38793;52.690;6.812;2023-04-06T13:49:49;12.40;78.90
52919;DHT22;38793;52.690;6.812;2023-04-06T13:52:16;12.30;79.70
52919;DHT22;38793;52.690;6.812;2023-04-06T13:54:42;12.30;81.10
52919;DHT22;38793;52.690;6.812;2023-04-06T13:57:07;12.20;81.10
52919;DHT22;38793;52.690;6.812;2023-04-06T13:59:34;12.20;79.40
52919;DHT22;38793;52.690;6.812;2023-04-06T14:02:04;12.10;80.80
52919;DHT22;38793;52.690;6.812;2023-04-06T14:04:31;12.00;81.30
52919;DHT22;38793;52.690;6.812;2023-04-06T14:06:57;12.00;81.70
52919;DHT22;38793;52.690;6.812;2023-04-06T14:09:23;12.00;82.80
52919;DHT22;38793;52.690;6.812;2023-04-06T14:11:49;11.90;81.50
52919;DHT22;38793;52.690;6.812;2023-04-06T14:14:15;11.90;81.40
52919;DHT22;38793;52.690;6.812;2023-04-06T14:16:41;12.00;82.40
52919;DHT22;38793;52.690;6.812;2023-04-06T14:19:12;11.90;81.10
52919;DHT22;38793;52.690;6.812;2023-04-06T14:21:39;11.80;81.30
52919;DHT22;38793;52.690;6.812;2023-04-06T14:24:08;11.70;80.60
52919;DHT22;38793;52.690;6.812;2023-04-06T14:26:35;11.70;81.10
52919;DHT22;38793;52.690;6.812;2023-04-06T14:29:01;11.70;80.60
52919;DHT22;38793;52.690;6.812;2023-04-06T14:31:27;11.60;80.70
52919;DHT22;38793;52.690;6.812;2023-04-06T14:33:53;11.60;81.40
52919;DHT22;38793;52.690;6.812;2023-04-06T14:36:19;11.50;80.80
52919;DHT22;38793;52.690;6.812;2023-04-06T14:38:44;11.40;79.60
52919;DHT22;38793;52.690;6.812;2023-04-06T14:41:19;11.40;81.10
52919;DHT22;38793;52.690;6.812;2023-04-06T14:43:48;11.30;80.60
52919;DHT22;38793;52.690;6.812;2023-04-06T14:46:13;11.20;80.20
52919;DHT22;38793;52.690;6.812;2023-04-06T14:48:41;11.30;81.90
52919;DHT22;38793;52.690;6.812;2023-04-06T14:51:06;11.20;80.80
52919;DHT22;38793;52.690;6.812;2023-04-06T14:53:33;11.20;80.40
52919;DHT22;38793;52.690;6.812;2023-04-06T14:55:58;11.20;81.60
52919;DHT22;38793;52.690;6.812;2023-04-06T14:58:25;11.20;82.60
52919;DHT22;38793;52.690;6.812;2023-04-06T15:00:56;11.20;82.20
52919;DHT22;38793;52.690;6.812;2023-04-06T15:03:23;11.20;82.60
52919;DHT22;38793;52.690;6.812;2023-04-06T15:05:51;11.10;82.60
52919;DHT22;38793;52.690;6.812;2023-04-06T15:08:16;11.10;83.60
52919;DHT22;38793;52.690;6.812;2023-04-06T15:10:42;11.20;84.60
52919;DHT22;38793;52.690;6.812;2023-04-06T15:13:08;11.10;85.30
52919;DHT22;38793;52.690;6.812;2023-04-06T15:15:33;11.10;85.20
52919;DHT22;38793;52.690;6.812;2023-04-06T15:17:59;11.00;86.50
52919;DHT22;38793;52.690;6.812;2023-04-06T15:20:27;10.90;87.60
52919;DHT22;38793;52.690;6.812;2023-04-06T15:22:53;10.90;89.00
52919;DHT22;38793;52.690;6.812;2023-04-06T15:25:18;10.80;90.20
52919;DHT22;38793;52.690;6.812;2023-04-06T15:27:44;10.70;90.80
52919;DHT22;38793;52.690;6.812;2023-04-06T15:30:10;10.70;92.30
52919;DHT22;38793;52.690;6.812;2023-04-06T15:32:36;10.60;92.70
52919;DHT22;38793;52.690;6.812;2023-04-06T15:35:09;10.50;93.50
52919;DHT22;38793;52.690;6.812;2023-04-06T15:37:35;10.40;93.80